sensor_id;sensor_type;location;lat;lon;timestamp;pressure;altitude;pressure_sealevel;temperature;humidity
3428;BME280;1727;42.624;23.406;2023-06-22T00:00:52;95292.16;;;21.78;82.73
3428;BME280;1727;42.624;23.406;2023-06-22T00:03:20;95287.00;;;21.77;82.08
3428;BME280;1727;42.624;23.406;2023-06-22T00:05:48;95283.72;;;21.75;81.70
3428;BME280;1727;42.624;23.406;2023-06-22T00:08:17;95278.94;;;21.70;80.69
3428;BME280;1727;42.624;23.406;2023-06-22T00:10:44;95292.38;;;21.62;81.53
3428;BME280;1727;42.624;23.406;2023-06-22T00:13:12;95291.28;;;21.56;81.01
3428;BME280;1727;42.624;23.406;2023-06-22T00:15:40;95275.00;;;21.51;82.32
3428;BME280;1727;42.624;23.406;2023-06-22T00:18:08;95283.66;;;21.53;81.65
3428;BME280;1727;42.624;23.406;2023-06-22T00:20:35;95284.22;;;21.49;82.02
3428;BME280;1727;42.624;23.406;2023-06-22T00:23:04;95276.59;;;21.46;82.04
3428;BME280;1727;42.624;23.406;2023-06-22T00:25:34;95268.13;;;21.42;81.68
3428;BME280;1727;42.624;23.406;2023-06-22T00:28:02;95265.38;;;21.36;81.76
3428;BME280;1727;42.624;23.406;2023-06-22T00:30:30;95263.53;;;21.36;83.00
3428;BME280;1727;42.624;23.406;2023-06-22T00:32:57;95251.75;;;21.30;81.74
3428;BME280;1727;42.624;23.406;2023-06-22T00:35:24;95250.94;;;21.30;82.16
3428;BME280;1727;42.624;23.406;2023-06-22T00:37:54;95252.97;;;21.28;81.16
3428;BME280;1727;42.624;23.406;2023-06-22T00:40:26;95248.00;;;21.25;81.86
3428;BME280;1727;42.624;23.406;2023-06-22T00:42:54;95266.00;;;21.23;82.86
3428;BME280;1727;42.624;23.406;2023-06-22T00:45:21;95259.03;;;21.22;84.11
3428;BME280;1727;42.624;23.406;2023-06-22T00:47:49;95249.00;;;21.24;83.69
3428;BME280;1727;42.624;23.406;2023-06-22T00:50:19;95252.78;;;21.29;83.87
3428;BME280;1727;42.624;23.406;2023-06-22T00:52:48;95257.53;;;21.34;83.50
3428;BME280;1727;42.624;23.406;2023-06-22T00:55:18;95255.50;;;21.36;83.35
3428;BME280;1727;42.624;23.406;2023-06-22T00:57:46;95258.47;;;21.41;82.87
3428;BME280;1727;42.624;23.406;2023-06-22T01:00:15;95254.22;;;21.47;83.30
3428;BME280;1727;42.624;23.406;2023-06-22T01:02:45;95250.97;;;21.51;83.69
3428;BME280;1727;42.624;23.406;2023-06-22T01:05:13;95244.25;;;21.55;82.99
3428;BME280;1727;42.624;23.406;2023-06-22T01:07:44;95238.06;;;21.55;82.13
3428;BME280;1727;42.624;23.406;2023-06-22T01:10:18;95258.69;;;21.61;81.42
3428;BME280;1727;42.624;23.406;2023-06-22T01:12:51;95248.31;;;21.51;81.27
3428;BME280;1727;42.624;23.406;2023-06-22T01:15:22;95247.03;;;21.47;82.01
3428;BME280;1727;42.624;23.406;2023-06-22T01:17:52;95264.44;;;21.43;82.50
3428;BME280;1727;42.624;23.406;2023-06-22T01:20:19;95263.91;;;21.33;82.73
3428;BME280;1727;42.624;23.406;2023-06-22T01:23:01;95258.56;;;21.18;84.28
3428;BME280;1727;42.624;23.406;2023-06-22T01:25:36;95261.81;;;21.14;84.11
3428;BME280;1727;42.624;23.406;2023-06-22T01:28:20;95266.50;;;21.12;85.79
3428;BME280;1727;42.624;23.406;2023-06-22T01:30:51;95277.44;;;21.17;85.60
3428;BME280;1727;42.624;23.406;2023-06-22T01:33:29;95266.50;;;21.26;86.32
3428;BME280;1727;42.624;23.406;2023-06-22T01:35:56;95270.38;;;21.24;85.11
3428;BME280;1727;42.624;23.406;2023-06-22T01:38:23;95257.75;;;21.18;85.92
3428;BME280;1727;42.624;23.406;2023-06-22T01:40:51;95273.13;;;21.30;86.09
3428;BME280;1727;42.624;23.406;2023-06-22T01:43:18;95268.03;;;21.36;85.26
3428;BME280;1727;42.624;23.406;2023-06-22T01:45:46;95265.75;;;21.32;85.15
3428;BME280;1727;42.624;23.406;2023-06-22T01:48:15;95272.28;;;21.30;85.51
3428;BME280;1727;42.624;23.406;2023-06-22T01:50:43;95274.50;;;21.26;85.99
3428;BME280;1727;42.624;23.406;2023-06-22T01:53:10;95267.97;;;21.29;86.41
3428;BME280;1727;42.624;23.406;2023-06-22T01:55:37;95275.78;;;21.30;86.30
3428;BME280;1727;42.624;23.406;2023-06-22T01:58:03;95267.41;;;21.19;85.99
3428;BME280;1727;42.624;23.406;2023-06-22T02:00:32;95275.03;;;21.22;87.17
3428;BME280;1727;42.624;23.406;2023-06-22T02:03:02;95278.72;;;21.06;86.90
3428;BME280;1727;42.624;23.406;2023-06-22T02:05:34;95278.63;;;20.99;87.62
3428;BME280;1727;42.624;23.406;2023-06-22T02:08:07;95282.31;;;20.98;88.41
3428;BME280;1727;42.624;23.406;2023-06-22T02:10:36;95283.69;;;20.94;88.21
3428;BME280;1727;42.624;23.406;2023-06-22T02:13:06;95284.69;;;20.79;87.85
3428;BME280;1727;42.624;23.406;2023-06-22T02:15:33;95288.94;;;20.73;89.47
3428;BME280;1727;42.624;23.406;2023-06-22T02:18:01;95290.31;;;20.69;88.76
3428;BME280;1727;42.624;23.406;2023-06-22T02:20:27;95281.50;;;20.83;89.86
3428;BME280;1727;42.624;23.406;2023-06-22T02:22:56;95280.50;;;20.84;88.29
3428;BME280;1727;42.624;23.406;2023-06-22T02:25:22;95277.44;;;20.87;88.40
3428;BME280;1727;42.624;23.406;2023-06-22T02:27:49;95284.06;;;20.77;88.48
3428;BME280;1727;42.624;23.406;2023-06-22T02:30:16;95278.63;;;20.70;89.34
3428;BME280;1727;42.624;23.406;2023-06-22T02:32:43;95283.22;;;20.61;89.80
3428;BME280;1727;42.624;23.406;2023-06-22T02:35:10;95289.81;;;20.51;90.23
3428;BME280;1727;42.624;23.406;2023-06-22T02:37:38;95280.16;;;20.50;90.65
3428;BME280;1727;42.624;23.406;2023-06-22T02:40:09;95273.09;;;20.57;92.20
3428;BME280;1727;42.624;23.406;2023-06-22T02:42:36;95272.84;;;20.66;92.14
3428;BME280;1727;42.624;23.406;2023-06-22T02:45:03;95274.03;;;20.64;91.02
3428;BME280;1727;42.624;23.406;2023-06-22T02:47:30;95286.53;;;20.63;91.40
3428;BME280;1727;42.624;23.406;2023-06-22T02:49:57;95278.34;;;20.65;91.95
3428;BME280;1727;42.624;23.406;2023-06-22T02:52:24;95280.00;;;20.66;91.86
3428;BME280;1727;42.624;23.406;2023-06-22T02:54:51;95291.31;;;20.68;91.84
3428;BME280;1727;42.624;23.406;2023-06-22T02:57:19;95294.91;;;20.75;91.36
3428;BME280;1727;42.624;23.406;2023-06-22T02:59:46;95292.06;;;20.77;90.05
3428;BME280;1727;42.624;23.406;2023-06-22T03:02:12;95302.25;;;20.73;91.19
3428;BME280;1727;42.624;23.406;2023-06-22T03:04:39;95297.28;;;20.70;91.42
3428;BME280;1727;42.624;23.406;2023-06-22T03:07:06;95297.28;;;20.70;91.58
3428;BME280;1727;42.624;23.406;2023-06-22T03:09:33;95292.16;;;20.68;91.57
3428;BME280;1727;42.624;23.406;2023-06-22T03:12:00;95297.28;;;20.70;90.14
3428;BME280;1727;42.624;23.406;2023-06-22T03:14:28;95295.78;;;20.53;88.59
3428;BME280;1727;42.624;23.406;2023-06-22T03:16:55;95299.81;;;20.49;89.26
3428;BME280;1727;42.624;23.406;2023-06-22T03:19:27;95303.28;;;20.34;89.94
3428;BME280;1727;42.624;23.406;2023-06-22T03:21:54;95309.59;;;20.33;91.05
3428;BME280;1727;42.624;23.406;2023-06-22T03:24:21;95309.44;;;20.35;91.78
3428;BME280;1727;42.624;23.406;2023-06-22T03:26:48;95321.22;;;20.40;92.22
3428;BME280;1727;42.624;23.406;2023-06-22T03:29:15;95319.50;;;20.48;91.96
3428;BME280;1727;42.624;23.406;2023-06-22T03:31:43;95325.78;;;20.55;91.87
3428;BME280;1727;42.624;23.406;2023-06-22T03:34:10;95325.88;;;20.61;91.40
3428;BME280;1727;42.624;23.406;2023-06-22T03:36:37;95324.78;;;20.70;91.44
3428;BME280;1727;42.624;23.406;2023-06-22T03:39:03;95337.53;;;20.83;91.21
3428;BME280;1727;42.624;23.406;2023-06-22T03:41:30;95323.34;;;20.97;91.04
3428;BME280;1727;42.624;23.406;2023-06-22T03:43:57;95328.78;;;21.19;89.78
3428;BME280;1727;42.624;23.406;2023-06-22T03:46:24;95333.56;;;21.38;88.57
3428;BME280;1727;42.624;23.406;2023-06-22T03:48:52;95328.31;;;21.59;88.37
3428;BME280;1727;42.624;23.406;2023-06-22T03:51:19;95337.00;;;21.83;86.64
3428;BME280;1727;42.624;23.406;2023-06-22T03:53:46;95335.16;;;21.98;85.11
3428;BME280;1727;42.624;23.406;2023-06-22T03:56:13;95334.47;;;22.11;84.71
3428;BME280;1727;42.624;23.406;2023-06-22T03:58:45;95337.41;;;22.16;82.61
3428;BME280;1727;42.624;23.406;2023-06-22T04:01:12;95341.59;;;22.25;81.77
3428;BME280;1727;42.624;23.406;2023-06-22T04:03:39;95346.44;;;22.36;79.77
3428;BME280;1727;42.624;23.406;2023-06-22T04:06:09;95347.53;;;22.42;79.21
3428;BME280;1727;42.624;23.406;2023-06-22T04:08:36;95347.13;;;22.45;78.03
3428;BME280;1727;42.624;23.406;2023-06-22T04:11:02;95340.63;;;22.54;77.93
3428;BME280;1727;42.624;23.406;2023-06-22T04:13:30;95345.63;;;22.57;79.04
3428;BME280;1727;42.624;23.406;2023-06-22T04:15:57;95351.50;;;22.52;78.40
3428;BME280;1727;42.624;23.406;2023-06-22T04:18:24;95341.53;;;22.40;78.44
3428;BME280;1727;42.624;23.406;2023-06-22T04:20:50;95341.16;;;22.43;78.05
3428;BME280;1727;42.624;23.406;2023-06-22T04:23:18;95341.84;;;22.79;84.55
3428;BME280;1727;42.624;23.406;2023-06-22T04:25:45;95337.66;;;23.20;80.00
3428;BME280;1727;42.624;23.406;2023-06-22T04:28:32;95337.69;;;23.61;76.47
3428;BME280;1727;42.624;23.406;2023-06-22T04:31:00;95334.13;;;24.01;75.59
3428;BME280;1727;42.624;23.406;2023-06-22T04:33:28;95326.72;;;24.17;71.14
3428;BME280;1727;42.624;23.406;2023-06-22T04:35:55;95329.41;;;24.23;71.66
3428;BME280;1727;42.624;23.406;2023-06-22T04:38:24;95317.03;;;24.22;70.09
3428;BME280;1727;42.624;23.406;2023-06-22T04:40:51;95314.16;;;24.10;72.58
3428;BME280;1727;42.624;23.406;2023-06-22T04:43:18;95323.84;;;24.12;69.32
3428;BME280;1727;42.624;23.406;2023-06-22T04:45:48;95308.72;;;23.97;70.21
3428;BME280;1727;42.624;23.406;2023-06-22T04:48:17;95314.28;;;23.89;70.48
3428;BME280;1727;42.624;23.406;2023-06-22T04:50:44;95308.31;;;23.87;71.97
3428;BME280;1727;42.624;23.406;2023-06-22T04:53:11;95307.75;;;24.18;73.37
3428;BME280;1727;42.624;23.406;2023-06-22T04:55:39;95308.03;;;24.43;72.79
3428;BME280;1727;42.624;23.406;2023-06-22T04:58:11;95316.28;;;24.75;75.05
3428;BME280;1727;42.624;23.406;2023-06-22T05:00:38;95315.84;;;25.11;74.18
3428;BME280;1727;42.624;23.406;2023-06-22T05:03:05;95322.78;;;25.58;75.81
3428;BME280;1727;42.624;23.406;2023-06-22T05:05:36;95333.97;;;26.00;69.45
3428;BME280;1727;42.624;23.406;2023-06-22T05:08:03;95332.97;;;26.39;66.21
3428;BME280;1727;42.624;23.406;2023-06-22T05:10:32;95325.53;;;26.66;64.60
3428;BME280;1727;42.624;23.406;2023-06-22T05:13:00;95328.81;;;26.99;70.42
3428;BME280;1727;42.624;23.406;2023-06-22T05:15:27;95330.13;;;27.33;66.46
3428;BME280;1727;42.624;23.406;2023-06-22T05:17:56;95325.91;;;27.62;61.37
3428;BME280;1727;42.624;23.406;2023-06-22T05:20:23;95329.34;;;27.88;61.42
3428;BME280;1727;42.624;23.406;2023-06-22T05:22:50;95329.31;;;28.06;58.34
3428;BME280;1727;42.624;23.406;2023-06-22T05:25:17;95336.75;;;27.74;58.97
3428;BME280;1727;42.624;23.406;2023-06-22T05:27:44;95337.84;;;26.80;61.92
3428;BME280;1727;42.624;23.406;2023-06-22T05:30:13;95344.88;;;26.81;62.02
3428;BME280;1727;42.624;23.406;2023-06-22T05:32:41;95348.13;;;26.90;64.24
3428;BME280;1727;42.624;23.406;2023-06-22T05:35:09;95348.25;;;25.49;68.66
3428;BME280;1727;42.624;23.406;2023-06-22T05:37:36;95351.81;;;24.96;70.49
3428;BME280;1727;42.624;23.406;2023-06-22T05:40:04;95349.44;;;24.27;73.49
3428;BME280;1727;42.624;23.406;2023-06-22T05:42:32;95356.31;;;24.50;73.22
3428;BME280;1727;42.624;23.406;2023-06-22T05:44:59;95365.28;;;24.02;75.55
3428;BME280;1727;42.624;23.406;2023-06-22T05:47:27;95364.69;;;24.27;74.76
3428;BME280;1727;42.624;23.406;2023-06-22T05:49:54;95359.03;;;24.76;73.44
3428;BME280;1727;42.624;23.406;2023-06-22T05:52:21;95368.28;;;25.53;71.96
3428;BME280;1727;42.624;23.406;2023-06-22T05:54:47;95369.22;;;25.85;69.37
3428;BME280;1727;42.624;23.406;2023-06-22T05:57:14;95374.41;;;26.24;68.01
3428;BME280;1727;42.624;23.406;2023-06-22T05:59:41;95370.88;;;26.69;66.80
3428;BME280;1727;42.624;23.406;2023-06-22T06:02:08;95373.63;;;26.87;64.83
3428;BME280;1727;42.624;23.406;2023-06-22T06:04:36;95370.41;;;27.03;64.58
3428;BME280;1727;42.624;23.406;2023-06-22T06:07:03;95370.00;;;27.50;64.09
3428;BME280;1727;42.624;23.406;2023-06-22T06:09:30;95371.34;;;27.95;62.63
3428;BME280;1727;42.624;23.406;2023-06-22T06:11:57;95363.56;;;28.05;61.13
3428;BME280;1727;42.624;23.406;2023-06-22T06:14:24;95360.34;;;28.45;60.21
3428;BME280;1727;42.624;23.406;2023-06-22T06:16:50;95360.91;;;28.65;59.21
3428;BME280;1727;42.624;23.406;2023-06-22T06:19:17;95355.06;;;28.38;60.06
3428;BME280;1727;42.624;23.406;2023-06-22T06:21:45;95356.22;;;28.73;59.05
3428;BME280;1727;42.624;23.406;2023-06-22T06:24:12;95357.81;;;29.04;58.01
3428;BME280;1727;42.624;23.406;2023-06-22T06:26:39;95351.00;;;29.01;57.27
3428;BME280;1727;42.624;23.406;2023-06-22T06:29:06;95352.69;;;28.84;57.46
3428;BME280;1727;42.624;23.406;2023-06-22T06:31:33;95345.09;;;28.51;57.90
3428;BME280;1727;42.624;23.406;2023-06-22T06:34:00;95351.34;;;28.93;58.06
3428;BME280;1727;42.624;23.406;2023-06-22T06:36:27;95352.44;;;29.27;56.67
3428;BME280;1727;42.624;23.406;2023-06-22T06:38:55;95354.78;;;29.58;54.81
3428;BME280;1727;42.624;23.406;2023-06-22T06:41:22;95349.56;;;29.92;53.33
3428;BME280;1727;42.624;23.406;2023-06-22T06:43:49;95349.41;;;29.99;53.65
3428;BME280;1727;42.624;23.406;2023-06-22T06:46:17;95351.34;;;30.27;53.30
3428;BME280;1727;42.624;23.406;2023-06-22T06:48:44;95340.94;;;30.35;51.38
3428;BME280;1727;42.624;23.406;2023-06-22T06:51:11;95335.66;;;30.57;50.96
3428;BME280;1727;42.624;23.406;2023-06-22T06:53:38;95342.53;;;30.76;50.52
3428;BME280;1727;42.624;23.406;2023-06-22T06:56:06;95331.56;;;31.00;50.77
3428;BME280;1727;42.624;23.406;2023-06-22T06:58:35;95331.28;;;30.85;49.31
3428;BME280;1727;42.624;23.406;2023-06-22T07:01:02;95329.66;;;30.83;50.51
3428;BME280;1727;42.624;23.406;2023-06-22T07:03:29;95329.81;;;30.94;51.56
3428;BME280;1727;42.624;23.406;2023-06-22T07:05:57;95329.16;;;31.03;48.36
3428;BME280;1727;42.624;23.406;2023-06-22T07:08:24;95325.31;;;30.99;49.88
3428;BME280;1727;42.624;23.406;2023-06-22T07:10:51;95324.69;;;30.35;50.80
3428;BME280;1727;42.624;23.406;2023-06-22T07:13:22;95315.25;;;29.81;52.43
3428;BME280;1727;42.624;23.406;2023-06-22T07:15:49;95328.78;;;29.81;53.29
3428;BME280;1727;42.624;23.406;2023-06-22T07:18:16;95323.22;;;29.76;54.39
3428;BME280;1727;42.624;23.406;2023-06-22T07:20:43;95323.16;;;29.59;54.59
3428;BME280;1727;42.624;23.406;2023-06-22T07:23:09;95324.75;;;29.72;54.50
3428;BME280;1727;42.624;23.406;2023-06-22T07:25:36;95325.59;;;29.84;55.10
3428;BME280;1727;42.624;23.406;2023-06-22T07:28:04;95318.72;;;29.53;54.35
3428;BME280;1727;42.624;23.406;2023-06-22T07:30:33;95320.69;;;29.34;55.26
3428;BME280;1727;42.624;23.406;2023-06-22T07:33:01;95324.19;;;29.81;54.87
3428;BME280;1727;42.624;23.406;2023-06-22T07:35:29;95314.41;;;30.20;55.02
3428;BME280;1727;42.624;23.406;2023-06-22T07:37:56;95315.94;;;30.45;51.18
3428;BME280;1727;42.624;23.406;2023-06-22T07:40:23;95314.09;;;30.34;50.60
3428;BME280;1727;42.624;23.406;2023-06-22T07:42:49;95323.19;;;30.56;52.65
3428;BME280;1727;42.624;23.406;2023-06-22T07:45:17;95318.97;;;30.94;51.94
3428;BME280;1727;42.624;23.406;2023-06-22T07:47:45;95316.50;;;31.09;50.41
3428;BME280;1727;42.624;23.406;2023-06-22T07:50:12;95318.56;;;31.35;51.07
3428;BME280;1727;42.624;23.406;2023-06-22T07:52:39;95326.56;;;31.64;49.55
3428;BME280;1727;42.624;23.406;2023-06-22T07:55:06;95330.16;;;31.86;49.41
3428;BME280;1727;42.624;23.406;2023-06-22T07:57:33;95329.69;;;31.94;49.73
3428;BME280;1727;42.624;23.406;2023-06-22T08:00:03;95326.03;;;31.84;49.16
3428;BME280;1727;42.624;23.406;2023-06-22T08:02:36;95317.50;;;31.75;49.72
3428;BME280;1727;42.624;23.406;2023-06-22T08:05:05;95320.22;;;31.75;47.00
3428;BME280;1727;42.624;23.406;2023-06-22T08:07:33;95316.72;;;31.58;48.07
3428;BME280;1727;42.624;23.406;2023-06-22T08:10:00;95305.13;;;31.46;47.50
3428;BME280;1727;42.624;23.406;2023-06-22T08:12:27;95315.59;;;31.37;47.36
3428;BME280;1727;42.624;23.406;2023-06-22T08:14:54;95314.53;;;31.38;49.07
3428;BME280;1727;42.624;23.406;2023-06-22T08:17:22;95310.84;;;31.10;48.45
3428;BME280;1727;42.624;23.406;2023-06-22T08:19:49;95306.31;;;30.82;48.65
3428;BME280;1727;42.624;23.406;2023-06-22T08:22:17;95305.28;;;30.67;51.31
3428;BME280;1727;42.624;23.406;2023-06-22T08:24:44;95298.69;;;30.34;51.92
3428;BME280;1727;42.624;23.406;2023-06-22T08:27:11;95300.81;;;30.04;51.76
3428;BME280;1727;42.624;23.406;2023-06-22T08:29:38;95291.16;;;29.96;51.65
3428;BME280;1727;42.624;23.406;2023-06-22T08:32:08;95288.84;;;29.88;50.45
3428;BME280;1727;42.624;23.406;2023-06-22T08:34:35;95288.72;;;29.95;51.81
3428;BME280;1727;42.624;23.406;2023-06-22T08:37:02;95283.16;;;30.01;51.83
3428;BME280;1727;42.624;23.406;2023-06-22T08:39:33;95282.25;;;30.07;53.71
3428;BME280;1727;42.624;23.406;2023-06-22T08:42:00;95290.31;;;30.36;54.19
3428;BME280;1727;42.624;23.406;2023-06-22T08:44:26;95297.16;;;30.55;52.68
3428;BME280;1727;42.624;23.406;2023-06-22T08:46:53;95297.47;;;30.70;51.85
3428;BME280;1727;42.624;23.406;2023-06-22T08:49:20;95298.88;;;30.73;49.60
3428;BME280;1727;42.624;23.406;2023-06-22T08:51:47;95296.78;;;30.63;49.01
3428;BME280;1727;42.624;23.406;2023-06-22T08:54:14;95291.47;;;30.68;48.72
3428;BME280;1727;42.624;23.406;2023-06-22T08:56:43;95292.06;;;30.70;49.52
3428;BME280;1727;42.624;23.406;2023-06-22T08:59:10;95292.53;;;30.67;49.40
3428;BME280;1727;42.624;23.406;2023-06-22T09:01:37;95294.78;;;30.59;49.38
3428;BME280;1727;42.624;23.406;2023-06-22T09:04:04;95284.75;;;30.59;51.17
3428;BME280;1727;42.624;23.406;2023-06-22T09:06:32;95277.44;;;30.71;50.52
3428;BME280;1727;42.624;23.406;2023-06-22T09:08:59;95271.50;;;30.91;50.37
3428;BME280;1727;42.624;23.406;2023-06-22T09:11:26;95276.16;;;31.12;49.45
3428;BME280;1727;42.624;23.406;2023-06-22T09:13:54;95275.66;;;31.32;50.07
3428;BME280;1727;42.624;23.406;2023-06-22T09:16:21;95277.13;;;31.40;46.87
3428;BME280;1727;42.624;23.406;2023-06-22T09:18:48;95272.91;;;31.49;47.79
3428;BME280;1727;42.624;23.406;2023-06-22T09:21:15;95279.66;;;31.47;48.05
3428;BME280;1727;42.624;23.406;2023-06-22T09:23:42;95267.72;;;31.26;46.46
3428;BME280;1727;42.624;23.406;2023-06-22T09:26:11;95278.44;;;31.37;48.79
3428;BME280;1727;42.624;23.406;2023-06-22T09:28:37;95273.09;;;31.42;47.31
3428;BME280;1727;42.624;23.406;2023-06-22T09:31:06;95271.13;;;31.38;46.46
3428;BME280;1727;42.624;23.406;2023-06-22T09:33:32;95270.63;;;31.41;45.57
3428;BME280;1727;42.624;23.406;2023-06-22T09:35:59;95275.22;;;31.40;47.01
3428;BME280;1727;42.624;23.406;2023-06-22T09:38:26;95274.47;;;31.45;48.72
3428;BME280;1727;42.624;23.406;2023-06-22T09:40:53;95283.84;;;31.54;46.24
3428;BME280;1727;42.624;23.406;2023-06-22T09:43:19;95274.88;;;31.54;45.40
3428;BME280;1727;42.624;23.406;2023-06-22T09:45:46;95266.66;;;31.49;45.77
3428;BME280;1727;42.624;23.406;2023-06-22T09:48:14;95272.06;;;31.49;44.38
3428;BME280;1727;42.624;23.406;2023-06-22T09:50:41;95280.16;;;31.43;44.92
3428;BME280;1727;42.624;23.406;2023-06-22T09:53:08;95274.34;;;31.35;46.26
3428;BME280;1727;42.624;23.406;2023-06-22T09:55:35;95268.28;;;31.28;45.82
3428;BME280;1727;42.624;23.406;2023-06-22T09:58:02;95266.09;;;31.25;44.66
3428;BME280;1727;42.624;23.406;2023-06-22T10:00:29;95265.81;;;31.26;45.63
3428;BME280;1727;42.624;23.406;2023-06-22T10:02:55;95255.38;;;31.18;46.34
3428;BME280;1727;42.624;23.406;2023-06-22T10:05:24;95255.13;;;31.20;47.27
3428;BME280;1727;42.624;23.406;2023-06-22T10:07:51;95241.81;;;31.18;48.83
3428;BME280;1727;42.624;23.406;2023-06-22T10:10:18;95249.56;;;31.26;46.73
3428;BME280;1727;42.624;23.406;2023-06-22T10:12:46;95237.78;;;31.21;45.73
3428;BME280;1727;42.624;23.406;2023-06-22T10:15:14;95247.72;;;31.15;46.58
3428;BME280;1727;42.624;23.406;2023-06-22T10:17:41;95247.66;;;31.10;47.38
3428;BME280;1727;42.624;23.406;2023-06-22T10:20:09;95244.38;;;31.08;47.56
3428;BME280;1727;42.624;23.406;2023-06-22T10:22:40;95243.75;;;31.01;46.81
3428;BME280;1727;42.624;23.406;2023-06-22T10:25:07;95247.03;;;31.03;45.28
3428;BME280;1727;42.624;23.406;2023-06-22T10:27:34;95240.03;;;31.07;45.42
3428;BME280;1727;42.624;23.406;2023-06-22T10:30:06;95249.47;;;31.04;43.46
3428;BME280;1727;42.624;23.406;2023-06-22T10:32:33;95243.81;;;31.06;46.08
3428;BME280;1727;42.624;23.406;2023-06-22T10:35:00;95241.16;;;31.11;45.43
3428;BME280;1727;42.624;23.406;2023-06-22T10:37:26;95236.25;;;31.08;45.03
3428;BME280;1727;42.624;23.406;2023-06-22T10:39:55;95229.75;;;31.09;46.22
3428;BME280;1727;42.624;23.406;2023-06-22T10:42:21;95229.03;;;30.97;46.52
3428;BME280;1727;42.624;23.406;2023-06-22T10:44:48;95231.00;;;30.85;45.42
3428;BME280;1727;42.624;23.406;2023-06-22T10:47:15;95221.88;;;30.91;45.13
3428;BME280;1727;42.624;23.406;2023-06-22T10:49:42;95229.38;;;31.00;46.58
3428;BME280;1727;42.624;23.406;2023-06-22T10:52:09;95219.16;;;31.07;45.61
3428;BME280;1727;42.624;23.406;2023-06-22T10:54:37;95227.09;;;31.14;45.25
3428;BME280;1727;42.624;23.406;2023-06-22T10:57:06;95230.25;;;31.23;46.65
3428;BME280;1727;42.624;23.406;2023-06-22T10:59:33;95223.00;;;31.28;44.19
3428;BME280;1727;42.624;23.406;2023-06-22T11:01:59;95223.81;;;31.29;44.42
3428;BME280;1727;42.624;23.406;2023-06-22T11:04:27;95222.88;;;31.01;43.68
3428;BME280;1727;42.624;23.406;2023-06-22T11:06:54;95222.88;;;31.01;44.80
3428;BME280;1727;42.624;23.406;2023-06-22T11:09:22;95219.56;;;31.16;46.22
3428;BME280;1727;42.624;23.406;2023-06-22T11:11:49;95215.13;;;31.27;44.37
3428;BME280;1727;42.624;23.406;2023-06-22T11:14:20;95222.81;;;31.35;43.31
3428;BME280;1727;42.624;23.406;2023-06-22T11:16:47;95213.34;;;31.37;44.81
3428;BME280;1727;42.624;23.406;2023-06-22T11:19:14;95205.84;;;31.44;44.36
3428;BME280;1727;42.624;23.406;2023-06-22T11:21:40;95212.78;;;31.57;44.57
3428;BME280;1727;42.624;23.406;2023-06-22T11:24:07;95207.22;;;31.69;45.08
3428;BME280;1727;42.624;23.406;2023-06-22T11:26:34;95205.72;;;31.78;45.05
3428;BME280;1727;42.624;23.406;2023-06-22T11:29:02;95201.63;;;31.76;43.56
3428;BME280;1727;42.624;23.406;2023-06-22T11:31:32;95198.19;;;31.63;44.75
3428;BME280;1727;42.624;23.406;2023-06-22T11:33:59;95202.63;;;31.26;43.16
3428;BME280;1727;42.624;23.406;2023-06-22T11:36:26;95197.94;;;31.21;44.77
3428;BME280;1727;42.624;23.406;2023-06-22T11:38:54;95194.09;;;31.17;45.14
3428;BME280;1727;42.624;23.406;2023-06-22T11:41:21;95197.47;;;31.07;44.68
3428;BME280;1727;42.624;23.406;2023-06-22T11:43:48;95185.94;;;30.78;44.70
3428;BME280;1727;42.624;23.406;2023-06-22T11:46:15;95191.38;;;30.78;46.47
3428;BME280;1727;42.624;23.406;2023-06-22T11:48:43;95194.22;;;30.55;45.81
3428;BME280;1727;42.624;23.406;2023-06-22T11:51:10;95179.53;;;30.51;47.16
3428;BME280;1727;42.624;23.406;2023-06-22T11:53:37;95186.09;;;30.55;46.62
3428;BME280;1727;42.624;23.406;2023-06-22T11:56:03;95173.69;;;30.59;46.10
3428;BME280;1727;42.624;23.406;2023-06-22T11:58:30;95168.03;;;30.77;45.46
3428;BME280;1727;42.624;23.406;2023-06-22T12:00:57;95169.88;;;30.94;45.77
3428;BME280;1727;42.624;23.406;2023-06-22T12:03:24;95163.06;;;30.91;44.82
3428;BME280;1727;42.624;23.406;2023-06-22T12:05:52;95169.59;;;31.12;44.14
3428;BME280;1727;42.624;23.406;2023-06-22T12:08:19;95179.13;;;31.14;46.33
3428;BME280;1727;42.624;23.406;2023-06-22T12:10:46;95176.38;;;30.93;44.93
3428;BME280;1727;42.624;23.406;2023-06-22T12:13:13;95171.97;;;30.87;46.30
3428;BME280;1727;42.624;23.406;2023-06-22T12:15:39;95180.09;;;30.53;47.55
3428;BME280;1727;42.624;23.406;2023-06-22T12:18:06;95176.59;;;30.19;47.95
3428;BME280;1727;42.624;23.406;2023-06-22T12:20:34;95196.28;;;29.57;53.95
3428;BME280;1727;42.624;23.406;2023-06-22T12:23:02;95197.53;;;29.15;56.05
3428;BME280;1727;42.624;23.406;2023-06-22T12:25:28;95192.00;;;27.98;60.66
3428;BME280;1727;42.624;23.406;2023-06-22T12:27:55;95198.88;;;27.34;65.66
3428;BME280;1727;42.624;23.406;2023-06-22T12:30:22;95192.16;;;27.06;69.01
3428;BME280;1727;42.624;23.406;2023-06-22T12:32:49;95209.03;;;26.27;71.80
3428;BME280;1727;42.624;23.406;2023-06-22T12:35:16;95204.81;;;25.37;82.84
3428;BME280;1727;42.624;23.406;2023-06-22T12:37:43;95201.25;;;24.85;84.02
3428;BME280;1727;42.624;23.406;2023-06-22T12:40:14;95206.25;;;23.95;79.20
3428;BME280;1727;42.624;23.406;2023-06-22T12:42:40;95212.78;;;23.60;88.23
3428;BME280;1727;42.624;23.406;2023-06-22T12:45:08;95217.41;;;23.31;90.19
3428;BME280;1727;42.624;23.406;2023-06-22T12:47:35;95230.44;;;23.47;93.94
3428;BME280;1727;42.624;23.406;2023-06-22T12:50:03;95239.16;;;23.63;95.24
3428;BME280;1727;42.624;23.406;2023-06-22T12:52:30;95256.53;;;23.80;96.92
3428;BME280;1727;42.624;23.406;2023-06-22T12:54:57;95264.81;;;23.98;100.00
3428;BME280;1727;42.624;23.406;2023-06-22T12:57:26;95270.00;;;24.06;100.00
3428;BME280;1727;42.624;23.406;2023-06-22T12:59:52;95276.69;;;23.63;100.00
3428;BME280;1727;42.624;23.406;2023-06-22T13:02:19;95276.53;;;23.71;100.00
3428;BME280;1727;42.624;23.406;2023-06-22T13:04:46;95277.94;;;23.67;100.00
3428;BME280;1727;42.624;23.406;2023-06-22T13:07:13;95269.09;;;23.73;100.00
3428;BME280;1727;42.624;23.406;2023-06-22T13:09:40;95266.84;;;23.83;100.00
3428;BME280;1727;42.624;23.406;2023-06-22T13:12:07;95265.47;;;24.00;100.00